Zodiac — WTH5653 — position and weather

sailwx.info

Track history (hours):
 
Tides and Currents Weather Stations Pressure Air Temp Water Temp Dewpoint Dewpoint Depression Visibility Wind Speed Wind Dir Waves Ship Positions

Zodiac

Ship's website: http://www.schoonerzodiac.com/

Owner: VESSEL ZODIAC CORP, Bellingham, WA. More information available from US FCC via Universal Licensing System and Coast Guard Vessel Documentation Center.

Last reported at 2017-Mar-22 21:28 UTC. Time now 2017-Mar-22 22:09 UTC.
Position N 48°32' W 123°01'.

Type: Sailing vessel. MMSI: 366968070.

Date/timePositionNaut miles runAvg speedWind from/ knotsBaromVisibWave heightAir tempDewpointWater temp
2017-Mar-22 21:28N 48°32' W 123°01'1 1.0
2017-Mar-22 20:33N 48°33' W 123°00'2 2.3
2017-Mar-22 19:33N 48°35' W 123°03'2 1.8
2017-Mar-22 18:33N 48°36' W 123°04'2 1.8
2017-Mar-22 17:33N 48°38' W 123°05'6 5.5
2017-Mar-22 16:33N 48°41' W 123°12'0 0.3
2017-Mar-22 15:33N 48°41' W 123°12'0 0.0
2017-Mar-22 14:33N 48°41' W 123°12'0 0.0
2017-Mar-22 13:30N 48°41' W 123°12'0 0.0
2017-Mar-22 12:33N 48°41' W 123°12'0 0.0
2017-Mar-22 11:24N 48°41' W 123°12'0 0.0
2017-Mar-22 10:33N 48°41' W 123°12'0 0.0
2017-Mar-22 09:33N 48°41' W 123°12'0 0.0
2017-Mar-22 08:27N 48°41' W 123°12'0 0.0
2017-Mar-22 06:06N 48°41' W 123°12'0 0.0
2017-Mar-22 04:33N 48°41' W 123°12'0 0.0
2017-Mar-22 02:30N 48°41' W 123°12'0 0.0
2017-Mar-22 01:18N 48°41' W 123°12'0 0.0
2017-Mar-22 00:33N 48°41' W 123°12'0 0.0
2017-Mar-21 23:24N 48°41' W 123°12'0 0.5
2017-Mar-21 22:33N 48°41' W 123°12'2 1.8
2017-Mar-21 21:33N 48°41' W 123°09'2 2.5
2017-Mar-21 20:33N 48°41' W 123°05'2 2.3
2017-Mar-21 19:33N 48°40' W 123°02'3 3.2
2017-Mar-21 18:33N 48°42' W 122°58'3 3.1
2017-Mar-21 17:33N 48°44' W 122°54'2 0.3
2017-Mar-21 12:29N 48°46' W 122°54'0 0.0
2017-Mar-21 11:29N 48°46' W 122°54'0 0.0
2017-Mar-21 10:11N 48°46' W 122°54'0 0.0
2017-Mar-21 09:29N 48°46' W 122°54'0 0.0
2017-Mar-21 06:05N 48°46' W 122°54'0 0.0
2017-Mar-21 02:26N 48°46' W 122°54'0 0.0
2017-Mar-21 00:32N 48°46' W 122°54'0 0.0
2017-Mar-20 23:24N 48°46' W 122°54'5 5.7
2017-Mar-20 22:33N 48°43' W 122°48'2 1.6
2017-Mar-20 21:33N 48°41' W 122°48'0 0.4
2017-Mar-20 20:33N 48°41' W 122°48'3 2.7
2017-Mar-20 19:33N 48°41' W 122°44'7 6.9
2017-Mar-20 18:33N 48°40' W 122°33'3 2.9
2017-Mar-20 17:23N 48°43' W 122°31'0 0.0
2017-Mar-20 16:23N 48°43' W 122°31'0 0.0
2017-Mar-20 15:11N 48°43' W 122°31'0 0.0
2017-Mar-20 14:29N 48°43' W 122°31'0 0.0
2017-Mar-20 13:05N 48°43' W 122°31'0 0.0
2017-Mar-20 12:05N 48°43' W 122°31'0 0.0
2017-Mar-20 11:29N 48°43' W 122°31'0 0.0
2017-Mar-20 10:05N 48°43' W 122°31'0 0.0
2017-Mar-20 09:23N 48°43' W 122°31'0 0.0
2017-Mar-20 08:29N 48°43' W 122°31'0 0.0
2017-Mar-20 06:17N 48°43' W 122°31'0 0.0
2017-Mar-20 05:29N 48°43' W 122°31'0 0.0
2017-Mar-20 03:29N 48°43' W 122°31'0 0.0
2017-Mar-19 22:05N 48°43' W 122°31'0 0.0
2017-Mar-19 21:29N 48°43' W 122°31'0 0.0
2017-Mar-18 12:23N 48°43' W 122°31'0 0.0
2017-Mar-18 11:29N 48°43' W 122°31'0 0.0
2017-Mar-18 10:17N 48°43' W 122°31'0 0.0
2017-Mar-18 07:29N 48°43' W 122°31'0 0.0
2017-Mar-17 18:26N 48°43' W 122°31'0 0.0
2017-Mar-17 15:11N 48°43' W 122°31'0 0.0
2017-Mar-17 11:11N 48°43' W 122°31'0 0.0
2017-Mar-16 16:03N 48°43' W 122°31'0 0.0
2017-Mar-16 15:04N 48°43' W 122°31'0 0.0
2017-Mar-16 13:21N 48°43' W 122°31'0 0.0
2017-Mar-16 12:21N 48°43' W 122°31'0 0.0
2017-Mar-16 11:30N 48°43' W 122°31'0 0.0
2017-Mar-16 08:18N 48°43' W 122°31'0 0.0
2017-Mar-16 06:33N 48°43' W 122°31'0 0.0
2017-Mar-16 04:27N 48°43' W 122°31'0 0.0
2017-Mar-16 03:21N 48°43' W 122°31'0 0.0
2017-Mar-15 02:33N 48°43' W 122°31'0 0.0
2017-Mar-15 01:15N 48°43' W 122°31'0 0.0
2017-Mar-14 22:27N 48°43' W 122°31'0 0.0
2017-Mar-14 21:33N 48°43' W 122°31'0 0.0
2017-Mar-14 20:27N 48°43' W 122°31'0 0.0
2017-Mar-14 19:33N 48°43' W 122°31'0 0.0
2017-Mar-14 18:33N 48°43' W 122°31'0 0.0
2017-Mar-14 17:21N 48°43' W 122°31'0 0.0
2017-Mar-14 16:33N 48°43' W 122°31'0 0.0
2017-Mar-14 07:21N 48°43' W 122°31'0 0.0
2017-Mar-13 18:15N 48°43' W 122°31'0 0.0
2017-Mar-13 15:27N 48°43' W 122°31'0 0.0
2017-Mar-13 04:25N 48°43' W 122°31'0 0.0
2017-Mar-13 03:07N 48°43' W 122°31'  
Track history (hours):
 
Tides and Currents Weather Stations Pressure Air Temp Water Temp Dewpoint Dewpoint Depression Visibility Wind Speed Wind Dir Waves Ship Positions

Zodiac

Ship's website: http://www.schoonerzodiac.com/

Owner: VESSEL ZODIAC CORP, Bellingham, WA. More information available from US FCC via Universal Licensing System and Coast Guard Vessel Documentation Center.

Last reported at 2017-Mar-22 21:28 UTC. Time now 2017-Mar-22 22:09 UTC.
Position N 48°32' W 123°01'.

Type: Sailing vessel. MMSI: 366968070.

Date/timePositionNaut miles runAvg speedWind from/ knotsBaromVisibWave heightAir tempDewpointWater temp
2017-Mar-22 21:28N 48°32' W 123°01'1 1.0
2017-Mar-22 20:33N 48°33' W 123°00'2 2.3
2017-Mar-22 19:33N 48°35' W 123°03'2 1.8
2017-Mar-22 18:33N 48°36' W 123°04'2 1.8
2017-Mar-22 17:33N 48°38' W 123°05'6 5.5
2017-Mar-22 16:33N 48°41' W 123°12'0 0.3
2017-Mar-22 15:33N 48°41' W 123°12'0 0.0
2017-Mar-22 14:33N 48°41' W 123°12'0 0.0
2017-Mar-22 13:30N 48°41' W 123°12'0 0.0
2017-Mar-22 12:33N 48°41' W 123°12'0 0.0
2017-Mar-22 11:24N 48°41' W 123°12'0 0.0
2017-Mar-22 10:33N 48°41' W 123°12'0 0.0
2017-Mar-22 09:33N 48°41' W 123°12'0 0.0
2017-Mar-22 08:27N 48°41' W 123°12'0 0.0
2017-Mar-22 06:06N 48°41' W 123°12'0 0.0
2017-Mar-22 04:33N 48°41' W 123°12'0 0.0
2017-Mar-22 02:30N 48°41' W 123°12'0 0.0
2017-Mar-22 01:18N 48°41' W 123°12'0 0.0
2017-Mar-22 00:33N 48°41' W 123°12'0 0.0
2017-Mar-21 23:24N 48°41' W 123°12'0 0.5
2017-Mar-21 22:33N 48°41' W 123°12'2 1.8
2017-Mar-21 21:33N 48°41' W 123°09'2 2.5
2017-Mar-21 20:33N 48°41' W 123°05'2 2.3
2017-Mar-21 19:33N 48°40' W 123°02'3 3.2
2017-Mar-21 18:33N 48°42' W 122°58'3 3.1
2017-Mar-21 17:33N 48°44' W 122°54'2 0.3
2017-Mar-21 12:29N 48°46' W 122°54'0 0.0
2017-Mar-21 11:29N 48°46' W 122°54'0 0.0
2017-Mar-21 10:11N 48°46' W 122°54'0 0.0
2017-Mar-21 09:29N 48°46' W 122°54'0 0.0
2017-Mar-21 06:05N 48°46' W 122°54'0 0.0
2017-Mar-21 02:26N 48°46' W 122°54'0 0.0
2017-Mar-21 00:32N 48°46' W 122°54'0 0.0
2017-Mar-20 23:24N 48°46' W 122°54'5 5.7
2017-Mar-20 22:33N 48°43' W 122°48'2 1.6
2017-Mar-20 21:33N 48°41' W 122°48'0 0.4
2017-Mar-20 20:33N 48°41' W 122°48'3 2.7
2017-Mar-20 19:33N 48°41' W 122°44'7 6.9
2017-Mar-20 18:33N 48°40' W 122°33'3 2.9
2017-Mar-20 17:23N 48°43' W 122°31'0 0.0
2017-Mar-20 16:23N 48°43' W 122°31'0 0.0
2017-Mar-20 15:11N 48°43' W 122°31'0 0.0
2017-Mar-20 14:29N 48°43' W 122°31'0 0.0
2017-Mar-20 13:05N 48°43' W 122°31'0 0.0
2017-Mar-20 12:05N 48°43' W 122°31'0 0.0
2017-Mar-20 11:29N 48°43' W 122°31'0 0.0
2017-Mar-20 10:05N 48°43' W 122°31'0 0.0
2017-Mar-20 09:23N 48°43' W 122°31'0 0.0
2017-Mar-20 08:29N 48°43' W 122°31'0 0.0
2017-Mar-20 06:17N 48°43' W 122°31'0 0.0
2017-Mar-20 05:29N 48°43' W 122°31'0 0.0
2017-Mar-20 03:29N 48°43' W 122°31'0 0.0
2017-Mar-19 22:05N 48°43' W 122°31'0 0.0
2017-Mar-19 21:29N 48°43' W 122°31'0 0.0
2017-Mar-18 12:23N 48°43' W 122°31'0 0.0
2017-Mar-18 11:29N 48°43' W 122°31'0 0.0
2017-Mar-18 10:17N 48°43' W 122°31'0 0.0
2017-Mar-18 07:29N 48°43' W 122°31'0 0.0
2017-Mar-17 18:26N 48°43' W 122°31'0 0.0
2017-Mar-17 15:11N 48°43' W 122°31'0 0.0
2017-Mar-17 11:11N 48°43' W 122°31'0 0.0
2017-Mar-16 16:03N 48°43' W 122°31'0 0.0
2017-Mar-16 15:04N 48°43' W 122°31'0 0.0
2017-Mar-16 13:21N 48°43' W 122°31'0 0.0
2017-Mar-16 12:21N 48°43' W 122°31'0 0.0
2017-Mar-16 11:30N 48°43' W 122°31'0 0.0
2017-Mar-16 08:18N 48°43' W 122°31'0 0.0
2017-Mar-16 06:33N 48°43' W 122°31'0 0.0
2017-Mar-16 04:27N 48°43' W 122°31'0 0.0
2017-Mar-16 03:21N 48°43' W 122°31'0 0.0
2017-Mar-15 02:33N 48°43' W 122°31'0 0.0
2017-Mar-15 01:15N 48°43' W 122°31'0 0.0
2017-Mar-14 22:27N 48°43' W 122°31'0 0.0
2017-Mar-14 21:33N 48°43' W 122°31'0 0.0
2017-Mar-14 20:27N 48°43' W 122°31'0 0.0
2017-Mar-14 19:33N 48°43' W 122°31'0 0.0
2017-Mar-14 18:33N 48°43' W 122°31'0 0.0
2017-Mar-14 17:21N 48°43' W 122°31'0 0.0
2017-Mar-14 16:33N 48°43' W 122°31'0 0.0
2017-Mar-14 07:21N 48°43' W 122°31'0 0.0
2017-Mar-13 18:15N 48°43' W 122°31'0 0.0
2017-Mar-13 15:27N 48°43' W 122°31'0 0.0
2017-Mar-13 04:25N 48°43' W 122°31'0 0.0
2017-Mar-13 03:07N 48°43' W 122°31'  

Dump ship's entire track history